AHD weather

Ardmore Downtown Executive Airport
Ardmore, Oklahoma, United States

Public forecast

Using degrees Fahrenheit for public forecast. Weather courtesy of forecast.io.

METAR (pilot weather report)

Retrieved UTC (0 seconds ago):

TAF (pilot weather forecast)

Closest forecast is University of Oklahoma Westheimer Airport, 68.2 nm (126.3 km) NNW. Retrieved 2019/05/20 18:30 UTC (0 seconds ago):

TAF KOUN 201727Z 2018/2118 13016KT 3SM BR VCSH OVC010 FM202100 14015G25KT 6SM BR VCTS BKN015CB TEMPO 2021/2101 VRB30G45KT 1/2SM +TSRAGR FG OVC012CB FM210100 15020G30KT 5SM BR VCTS OVC025CB TEMPO 2105/2109 2SM TSRA BR OVC015CB FM210900 16018KT 2SM -SHRA VCTS OVC015CB FM211600 21023KT 6SM BR BKN050